createdAt,value
2023-05-19T01:31:35.242Z,1.90
2023-05-19T01:34:04.284Z,1.90
2023-05-19T01:36:32.941Z,2.00
2023-05-19T01:39:02.201Z,1.70
2023-05-19T01:41:32.038Z,2.00
2023-05-19T01:43:59.436Z,2.00
2023-05-19T01:46:26.473Z,2.00
2023-05-19T01:48:54.639Z,1.80
2023-05-19T01:51:21.525Z,1.80
2023-05-19T01:53:48.516Z,1.80
2023-05-19T01:56:25.253Z,1.90
2023-05-19T01:59:02.566Z,2.00
2023-05-19T02:01:50.758Z,1.80
2023-05-19T02:04:40.395Z,2.00
2023-05-19T02:07:22.051Z,1.80
2023-05-19T02:10:03.479Z,2.00
2023-05-19T02:12:40.174Z,1.80
2023-05-19T02:15:14.008Z,1.70
2023-05-19T02:17:47.791Z,1.70
2023-05-19T02:20:15.739Z,1.60
2023-05-19T02:22:42.986Z,1.90
2023-05-19T02:25:10.963Z,1.90
2023-05-19T02:27:39.148Z,1.80
2023-05-19T02:30:08.372Z,1.70
2023-05-19T02:32:35.972Z,1.80
2023-05-19T02:35:03.612Z,1.80
2023-05-19T02:37:31.977Z,1.80
2023-05-19T02:39:58.897Z,2.10
2023-05-19T02:42:25.902Z,1.90
2023-05-19T02:44:55.119Z,1.80
2023-05-19T02:47:22.138Z,1.70
2023-05-19T02:49:49.120Z,1.70
2023-05-19T02:52:16.112Z,1.90
2023-05-19T02:54:43.027Z,2.00
2023-05-19T02:57:10.659Z,1.70
2023-05-19T02:59:37.671Z,1.80
2023-05-19T03:02:04.699Z,2.00
2023-05-19T03:04:31.720Z,1.80
2023-05-19T03:06:58.717Z,1.80
2023-05-19T03:09:25.822Z,1.80
2023-05-19T03:11:52.863Z,1.60
2023-05-19T03:14:23.278Z,1.60
2023-05-19T03:16:50.578Z,1.70
2023-05-19T03:19:17.910Z,2.20
2023-05-19T03:21:45.152Z,2.00
2023-05-19T03:24:12.252Z,1.70
2023-05-19T03:26:39.339Z,1.80
2023-05-19T03:29:06.340Z,1.60
2023-05-19T03:31:33.374Z,1.80
2023-05-19T03:34:00.509Z,1.70
2023-05-19T03:36:31.556Z,1.80
2023-05-19T03:38:58.827Z,2.10
2023-05-19T03:41:26.052Z,1.70
2023-05-19T03:43:53.037Z,1.80
2023-05-19T03:46:20.089Z,2.20
2023-05-19T03:48:47.207Z,1.90
2023-05-19T03:51:14.492Z,1.90
2023-05-19T03:53:41.580Z,2.10
2023-05-19T03:56:13.075Z,2.10
2023-05-19T03:58:44.021Z,2.10
2023-05-19T04:01:11.531Z,2.10
2023-05-19T04:03:58.545Z,2.10
2023-05-19T04:06:45.584Z,1.90
2023-05-19T04:09:15.294Z,2.20
2023-05-19T04:11:43.097Z,2.00
2023-05-19T04:14:11.914Z,1.80
2023-05-19T04:16:39.820Z,2.20
2023-05-19T04:19:07.047Z,2.10
2023-05-19T04:21:33.965Z,2.20
2023-05-19T04:24:01.319Z,2.20
2023-05-19T04:26:30.468Z,1.80
2023-05-19T04:28:57.425Z,2.10
2023-05-19T04:31:24.490Z,1.90
2023-05-19T04:33:52.991Z,2.00
2023-05-19T04:36:21.217Z,1.90
2023-05-19T04:38:48.372Z,2.20
2023-05-19T04:41:16.005Z,2.60
2023-05-19T04:43:44.215Z,2.10
2023-05-19T04:46:14.331Z,2.10
2023-05-19T04:48:41.440Z,2.00
2023-05-19T04:51:08.531Z,2.00
2023-05-19T04:53:36.065Z,2.20
2023-05-19T04:56:03.233Z,2.10
2023-05-19T04:58:30.147Z,1.90
2023-05-19T05:00:59.821Z,2.10
2023-05-19T05:03:26.951Z,1.70
2023-05-19T05:05:53.955Z,1.70
2023-05-19T05:08:23.910Z,1.60
2023-05-19T05:10:52.181Z,1.50
2023-05-19T05:13:22.404Z,1.50
2023-05-19T05:15:51.604Z,1.70
2023-05-19T05:18:18.823Z,1.60
2023-05-19T05:20:46.412Z,1.10
2023-05-19T05:23:21.961Z,1.30
2023-05-19T05:25:53.308Z,1.40
2023-05-19T05:28:27.638Z,1.40
2023-05-19T05:30:56.885Z,1.20
2023-05-19T05:33:24.459Z,1.10
2023-05-19T05:35:52.038Z,1.10
2023-05-19T05:38:19.338Z,1.10
2023-05-19T05:40:46.590Z,1.10
2023-05-19T05:43:13.937Z,1.20
2023-05-19T05:45:41.175Z,1.10
2023-05-19T05:48:09.026Z,1.20
2023-05-19T05:50:36.620Z,1.20
2023-05-19T05:53:06.839Z,0.90
2023-05-19T05:55:34.605Z,0.90
2023-05-19T05:58:01.945Z,0.80
2023-05-19T06:00:29.507Z,0.90
2023-05-19T06:03:11.798Z,0.90
2023-05-19T06:05:42.003Z,0.80
2023-05-19T06:08:10.456Z,1.00
2023-05-19T06:10:41.311Z,1.10
2023-05-19T06:13:12.275Z,1.20
2023-05-19T06:15:42.099Z,1.00
2023-05-19T06:18:36.301Z,1.10
2023-05-19T06:21:03.940Z,1.10
2023-05-19T06:23:31.311Z,1.20
2023-05-19T06:25:58.555Z,1.10
2023-05-19T06:28:25.766Z,1.30
2023-05-19T06:30:53.132Z,0.90
2023-05-19T06:33:20.554Z,1.20
2023-05-19T06:35:48.093Z,1.10
2023-05-19T06:38:15.543Z,1.30
2023-05-19T06:40:43.043Z,1.20
2023-05-19T06:43:10.497Z,1.20
2023-05-19T06:45:38.150Z,0.90
2023-05-19T06:48:05.862Z,1.00
2023-05-19T06:50:33.165Z,1.00
2023-05-19T06:53:01.288Z,0.80
2023-05-19T06:55:28.756Z,0.80
2023-05-19T06:57:56.410Z,1.20
2023-05-19T07:00:35.431Z,0.90
2023-05-19T07:03:02.952Z,0.80
2023-05-19T07:05:30.446Z,0.70
2023-05-19T07:07:57.499Z,0.70
2023-05-19T07:10:24.408Z,0.90
2023-05-19T07:12:51.415Z,1.10
2023-05-19T07:15:18.348Z,0.90
2023-05-19T07:17:45.510Z,0.80
2023-05-19T07:20:12.783Z,1.00
2023-05-19T07:22:39.958Z,0.90
2023-05-19T07:25:07.896Z,1.20
2023-05-19T07:27:35.429Z,0.90
2023-05-19T07:30:03.554Z,0.90
2023-05-19T07:32:30.726Z,0.90
2023-05-19T07:34:57.786Z,0.80
2023-05-19T07:37:25.835Z,0.80
2023-05-19T07:39:53.222Z,0.90
2023-05-19T07:42:20.246Z,0.80
2023-05-19T07:44:47.325Z,0.60
2023-05-19T07:47:14.338Z,0.70
2023-05-19T07:49:45.584Z,0.80
2023-05-19T07:52:13.310Z,1.20
2023-05-19T07:54:40.315Z,0.80
2023-05-19T07:57:08.860Z,2.90
2023-05-19T07:59:35.799Z,1.50
2023-05-19T08:02:02.954Z,0.90
2023-05-19T08:04:30.265Z,1.20
2023-05-19T08:06:57.346Z,0.90
2023-05-19T08:09:24.353Z,0.90
2023-05-19T08:11:51.370Z,1.00
2023-05-19T08:14:19.019Z,0.90
2023-05-19T08:16:46.109Z,1.20
2023-05-19T08:19:13.133Z,1.60
2023-05-19T08:21:41.754Z,2.70
2023-05-19T08:24:08.733Z,1.40
2023-05-19T08:26:37.587Z,0.90
2023-05-19T08:29:05.155Z,1.00
2023-05-19T08:31:32.214Z,0.90
2023-05-19T08:33:59.338Z,1.10
2023-05-19T08:36:27.196Z,0.80
2023-05-19T08:38:54.106Z,0.80
2023-05-19T08:41:22.699Z,0.60
2023-05-19T08:43:49.734Z,0.80
2023-05-19T08:46:16.934Z,1.00
2023-05-19T08:48:48.898Z,1.00
2023-05-19T08:51:34.692Z,1.00
2023-05-19T08:54:14.174Z,0.90
2023-05-19T08:56:47.406Z,0.90
2023-05-19T08:59:15.591Z,1.00
2023-05-19T09:01:45.536Z,1.10
2023-05-19T09:04:16.298Z,1.00
2023-05-19T09:06:44.608Z,0.80
2023-05-19T09:09:11.857Z,0.90
2023-05-19T09:12:59.950Z,1.00
2023-05-19T09:46:28.088Z,0.90
2023-05-19T09:49:15.120Z,0.80
2023-05-19T09:51:42.511Z,0.70
2023-05-19T09:54:20.590Z,0.60
2023-05-19T09:57:27.864Z,1.20
2023-05-19T10:02:28.309Z,0.90
2023-05-19T10:04:55.959Z,0.80
2023-05-19T10:07:26.109Z,1.00
2023-05-19T10:09:55.424Z,1.20
2023-05-19T10:12:26.313Z,0.90
2023-05-19T10:14:54.589Z,1.20
2023-05-19T10:17:22.145Z,1.20
2023-05-19T10:19:52.290Z,0.90
2023-05-19T10:22:19.622Z,0.90
2023-05-19T10:24:46.783Z,1.40
2023-05-19T10:27:15.225Z,1.10
2023-05-19T10:29:48.090Z,0.80
2023-05-19T10:36:07.940Z,0.90
2023-05-19T10:38:39.737Z,1.00
2023-05-19T10:41:32.914Z,1.00
2023-05-19T10:44:15.872Z,0.80
2023-05-19T10:46:43.117Z,1.10
2023-05-19T10:49:10.232Z,1.00
2023-05-19T10:51:58.297Z,1.00
2023-05-19T10:58:44.811Z,1.20
2023-05-19T11:01:14.536Z,1.00
2023-05-19T11:03:49.615Z,1.00
2023-05-19T11:11:21.164Z,5.60
2023-05-19T11:13:51.146Z,2.90
2023-05-19T11:16:31.282Z,1.00
2023-05-19T11:22:49.998Z,0.90
2023-05-19T11:25:41.358Z,1.10
2023-05-19T11:28:11.900Z,0.80
2023-05-19T11:30:41.900Z,0.80
2023-05-19T11:33:09.792Z,0.90
2023-05-19T11:35:38.382Z,0.90
2023-05-19T11:38:15.926Z,0.80
2023-05-19T11:40:55.500Z,0.90
2023-05-19T11:43:24.248Z,1.20
2023-05-19T11:45:53.900Z,1.00
2023-05-19T11:48:22.108Z,1.50
2023-05-19T11:50:50.401Z,0.90
2023-05-19T11:53:18.993Z,1.20
2023-05-19T11:55:47.365Z,1.20
2023-05-19T11:58:15.316Z,1.00
2023-05-19T12:00:46.864Z,1.00
2023-05-19T12:06:21.015Z,1.30
2023-05-19T12:08:50.971Z,1.20
2023-05-19T12:11:20.075Z,1.10
2023-05-19T12:13:47.447Z,1.10
2023-05-19T12:16:14.457Z,1.00
2023-05-19T12:18:41.896Z,0.80
2023-05-19T12:21:08.948Z,1.10
2023-05-19T12:23:36.593Z,0.90
2023-05-19T12:26:03.938Z,1.30
2023-05-19T12:28:31.017Z,1.30
2023-05-19T12:30:58.284Z,1.30
2023-05-19T12:33:25.846Z,1.00
2023-05-19T12:35:54.002Z,1.10
2023-05-19T12:38:22.216Z,1.40
2023-05-19T12:40:49.662Z,1.20
2023-05-19T12:43:21.716Z,1.30
2023-05-19T12:45:49.618Z,1.10
2023-05-19T12:51:53.755Z,1.40
2023-05-19T12:54:21.699Z,1.10
2023-05-19T12:56:52.751Z,1.30
2023-05-19T12:59:37.341Z,2.30
2023-05-19T13:02:06.065Z,2.10
2023-05-19T13:04:33.159Z,2.00
2023-05-19T13:07:00.124Z,1.60
2023-05-19T13:09:38.373Z,1.30
2023-05-19T13:12:06.069Z,1.30
2023-05-19T13:14:33.026Z,1.50
2023-05-19T13:16:59.991Z,1.00
2023-05-19T13:19:27.277Z,1.80
2023-05-19T13:21:54.309Z,3.70
2023-05-19T13:24:21.282Z,4.80
2023-05-19T13:26:48.340Z,18.20
2023-05-19T13:29:15.359Z,14.20
2023-05-19T13:31:42.289Z,16.90
2023-05-19T13:34:09.228Z,11.50
2023-05-19T13:36:36.270Z,21.00
2023-05-19T13:39:03.526Z,5.10
2023-05-19T13:41:30.435Z,2.90
2023-05-19T13:43:59.051Z,2.50
2023-05-19T13:46:36.667Z,2.20
2023-05-19T13:49:11.538Z,2.00
2023-05-19T13:51:41.706Z,1.80
2023-05-19T13:54:08.590Z,1.80
2023-05-19T13:56:36.059Z,1.90
2023-05-19T13:59:03.512Z,1.60
2023-05-19T14:01:30.798Z,1.20
2023-05-19T14:03:58.046Z,3.70
2023-05-19T14:06:25.104Z,5.20
2023-05-19T14:08:52.059Z,3.00
2023-05-19T14:11:24.105Z,3.70
2023-05-19T14:21:15.146Z,14.50
2023-05-19T14:23:51.356Z,7.50
2023-05-19T14:26:45.743Z,6.50
2023-05-19T14:29:13.623Z,8.70
2023-05-19T14:31:40.965Z,6.70
2023-05-19T14:34:17.586Z,3.30
2023-05-19T14:37:31.353Z,10.90
2023-05-19T14:39:58.547Z,9.60
2023-05-19T14:42:26.451Z,10.60
2023-05-19T14:44:56.285Z,6.10
2023-05-19T14:47:26.250Z,2.60
2023-05-19T14:49:54.471Z,2.40
2023-05-19T15:28:08.478Z,6.30
2023-05-19T15:30:37.409Z,19.00
2023-05-19T15:33:16.800Z,31.40
2023-05-19T15:35:44.140Z,39.00
2023-05-19T15:41:21.384Z,13.80
2023-05-19T15:43:48.579Z,7.00
2023-05-19T15:46:15.682Z,5.90
2023-05-19T15:48:42.711Z,5.00
2023-05-19T15:51:12.261Z,4.50
2023-05-19T15:54:10.277Z,4.00
2023-05-19T15:56:55.844Z,4.40
2023-05-19T15:59:24.065Z,3.30
2023-05-19T16:01:52.994Z,5.00
2023-05-19T16:04:20.491Z,4.70
2023-05-19T16:06:56.342Z,12.40
2023-05-19T16:09:23.319Z,6.90
2023-05-19T16:11:50.786Z,5.30
2023-05-19T16:14:17.754Z,3.20
2023-05-19T16:16:44.930Z,4.80
2023-05-19T16:19:12.002Z,4.30
2023-05-19T16:21:38.970Z,5.50
2023-05-19T16:24:06.085Z,3.90
2023-05-19T16:26:42.682Z,3.20
2023-05-19T16:29:24.742Z,3.10
2023-05-19T16:31:51.856Z,4.10
2023-05-19T16:34:18.816Z,2.90
2023-05-19T16:36:45.799Z,23.70
2023-05-19T16:39:12.843Z,10.30
2023-05-19T16:41:39.740Z,8.60
2023-05-19T16:44:06.725Z,8.40
2023-05-19T16:46:33.820Z,6.20
2023-05-19T16:49:00.926Z,8.90
2023-05-19T16:51:27.937Z,12.40
2023-05-19T16:53:54.954Z,9.20
2023-05-19T16:56:21.890Z,7.60
2023-05-19T16:58:48.885Z,12.00
2023-05-19T17:01:16.870Z,6.20
2023-05-19T17:03:43.934Z,4.70
2023-05-19T17:06:10.853Z,8.00
2023-05-19T17:08:37.737Z,9.80
2023-05-19T17:11:06.031Z,10.80
2023-05-19T17:13:36.150Z,4.60
2023-05-19T17:16:03.204Z,3.60
2023-05-19T17:18:32.992Z,4.80
2023-05-19T17:23:30.463Z,7.30
2023-05-19T17:25:57.935Z,6.00
2023-05-19T17:28:24.884Z,5.30
2023-05-19T17:30:51.917Z,7.20
2023-05-19T17:33:19.010Z,8.70
2023-05-19T17:35:46.163Z,5.30
2023-05-19T17:38:13.168Z,5.50
2023-05-19T17:40:41.983Z,5.60
2023-05-19T17:43:09.117Z,6.00
2023-05-19T17:45:36.086Z,5.00
2023-05-19T17:48:04.192Z,5.30
2023-05-19T17:50:34.473Z,6.70
2023-05-19T17:53:01.839Z,6.60
2023-05-19T17:55:30.472Z,10.60
2023-05-19T17:57:58.205Z,7.40
2023-05-19T18:00:25.716Z,5.30
2023-05-19T18:02:53.010Z,3.80
2023-05-19T18:05:20.477Z,4.30
2023-05-19T18:07:47.942Z,5.60
2023-05-19T18:10:16.315Z,3.60
2023-05-19T18:12:43.290Z,12.60
2023-05-19T18:15:11.055Z,4.10
2023-05-19T18:17:38.017Z,5.90
2023-05-19T18:20:06.187Z,6.20
2023-05-19T18:22:33.229Z,4.00
2023-05-19T18:25:00.483Z,3.60
2023-05-19T18:27:27.463Z,3.90
2023-05-19T18:29:54.435Z,4.60
2023-05-19T18:32:21.331Z,3.30
2023-05-19T18:34:48.198Z,3.70
2023-05-19T18:37:15.225Z,3.20
2023-05-19T18:39:42.167Z,4.30
2023-05-19T18:42:09.145Z,2.90
2023-05-19T18:44:36.121Z,3.20
2023-05-19T18:47:03.301Z,2.60
2023-05-19T18:49:30.359Z,2.40
2023-05-19T18:51:57.254Z,3.10
2023-05-19T18:54:24.332Z,2.30
2023-05-19T18:56:51.355Z,2.30
2023-05-19T18:59:18.456Z,3.10
2023-05-19T19:01:45.533Z,5.00
2023-05-19T19:04:14.260Z,5.30
2023-05-19T19:06:41.943Z,6.60
2023-05-19T19:09:08.995Z,5.60
2023-05-19T19:11:36.021Z,5.40
2023-05-19T19:14:02.968Z,5.20
2023-05-19T19:16:30.093Z,6.90
2023-05-19T19:18:57.200Z,6.40
2023-05-19T19:21:24.232Z,4.80
2023-05-19T19:23:54.340Z,7.70
2023-05-19T19:26:26.555Z,6.30
2023-05-19T19:28:53.956Z,6.00
2023-05-19T19:31:21.406Z,7.60
2023-05-19T19:33:48.713Z,8.10
2023-05-19T19:36:15.586Z,8.40
2023-05-19T19:38:42.536Z,12.20
2023-05-19T19:41:10.549Z,13.10
2023-05-19T19:43:37.522Z,12.30
2023-05-19T19:46:06.525Z,8.80
2023-05-19T19:48:33.521Z,6.20
2023-05-19T19:51:16.889Z,5.80
2023-05-19T19:53:44.154Z,3.90
2023-05-19T19:56:11.816Z,3.40
2023-05-19T19:58:38.797Z,3.50
2023-05-19T20:01:07.387Z,3.70
2023-05-19T20:03:35.063Z,6.40
2023-05-19T20:06:02.555Z,6.50
2023-05-19T20:08:29.794Z,4.60
2023-05-19T20:10:56.879Z,5.30
2023-05-19T20:13:24.146Z,3.90
2023-05-19T20:15:51.205Z,4.80
2023-05-19T20:18:18.252Z,5.30
2023-05-19T20:20:45.350Z,4.80
2023-05-19T20:23:12.851Z,5.00
2023-05-19T20:26:11.915Z,4.50
2023-05-19T20:28:43.164Z,4.40
2023-05-19T20:31:22.148Z,4.10
2023-05-19T20:36:36.729Z,10.20
2023-05-19T20:39:09.274Z,5.50
2023-05-19T20:41:36.608Z,6.80
2023-05-19T20:44:04.254Z,9.10
2023-05-19T20:46:38.126Z,8.20
2023-05-19T20:52:27.911Z,7.40
2023-05-19T20:54:59.730Z,6.20
2023-05-19T21:05:34.412Z,4.10
2023-05-19T21:11:15.750Z,3.60
2023-05-19T21:13:43.614Z,3.00
2023-05-19T21:16:10.697Z,2.50
2023-05-19T21:18:51.982Z,2.50
2023-05-19T21:21:19.434Z,2.50
2023-05-19T21:23:46.577Z,2.50
2023-05-19T21:26:15.192Z,3.00
2023-05-19T21:29:00.016Z,3.20
2023-05-19T21:31:45.651Z,5.10
2023-05-19T21:34:50.719Z,4.80
2023-05-19T21:37:21.246Z,3.30
2023-05-19T21:39:51.346Z,3.30
2023-05-19T21:42:20.475Z,4.10
2023-05-19T21:44:47.752Z,3.20
2023-05-19T21:47:29.262Z,3.00
2023-05-19T21:49:58.489Z,3.60
2023-05-19T21:52:25.761Z,4.10
2023-05-19T21:54:54.339Z,4.20
2023-05-19T21:57:21.573Z,4.50
2023-05-19T21:59:48.895Z,4.30
2023-05-19T22:09:51.118Z,4.70
2023-05-19T22:12:26.565Z,6.50
2023-05-19T22:14:53.583Z,7.80
2023-05-19T22:17:20.790Z,4.10
2023-05-19T22:19:47.808Z,3.30
2023-05-19T22:22:14.938Z,3.60
2023-05-19T22:24:42.175Z,4.50
2023-05-19T22:27:09.592Z,5.40
2023-05-19T22:29:38.160Z,5.90
2023-05-19T22:32:07.176Z,4.80
2023-05-19T22:34:34.299Z,4.50
2023-05-19T22:37:01.472Z,3.80
2023-05-19T22:39:28.727Z,2.80
2023-05-19T22:41:56.254Z,2.50
2023-05-19T22:44:26.812Z,2.40
2023-05-19T22:46:58.968Z,2.50
2023-05-19T22:49:56.929Z,2.50
2023-05-19T22:56:18.043Z,2.20
2023-05-19T22:58:50.265Z,2.50
2023-05-19T23:01:28.727Z,2.50
2023-05-19T23:03:57.966Z,2.50
2023-05-19T23:06:25.249Z,2.60
2023-05-19T23:09:01.087Z,2.50
2023-05-19T23:11:28.990Z,2.90
2023-05-19T23:14:04.276Z,2.80
2023-05-19T23:16:32.657Z,2.80
2023-05-19T23:18:59.617Z,2.80
2023-05-19T23:40:16.884Z,2.60
2023-05-19T23:43:15.920Z,2.30
2023-05-19T23:45:56.837Z,2.50
2023-05-19T23:48:28.116Z,2.40
2023-05-19T23:51:15.315Z,2.30
2023-05-19T23:53:47.451Z,2.50
2023-05-19T23:59:36.531Z,2.60
